Latest Coastal Weather Observations for Noarlunga

IDS60701

Issued at 11:51 pm CST Sunday 14 April 2024 (issued every 10 minutes, with the page automatically refreshed every 10 minutes)

About coastal observations | Map of coastal stations | Coastal observations for SA | Marine services | Other Formats
Station Details ID: 023885 Name: NOARLUNGA Lat: -35.16 Lon: 138.51 Height: 55.0 m
Data from the previous 72 hours. | See also: Recent months at Noarlunga
Date/Time
CST
Wind Sea
Height
m
Swell Vis
km
Cloud Weather Temp
°C
Press
MSL
hPa
Rain since
9am
mm
Dir  Spd
kts
Gust
kts
Height
m
Period
s
Dir
14/11:30pm E 8 11 - - - - - - - 13.2 - 0.0
14/11:00pm E 7 10 - - - - - - - 13.1 - 0.0
14/10:30pm E 7 10 - - - - - - - 13.0 - 0.0
14/10:00pm ENE 5 8 - - - - - - - 12.8 - 0.0
14/09:30pm E 5 8 - - - - - - - 12.9 - 0.0
14/09:00pm E 6 8 - - - - - - - 13.1 - 0.0
14/08:30pm ESE 7 11 - - - - - - - 13.5 - 0.0
14/08:00pm ESE 7 10 - - - - - - - 13.8 - 0.0
14/07:30pm ESE 7 10 - - - - - - - 14.1 - 0.0
14/07:00pm ESE 8 12 - - - - - - - 14.7 - 0.0
14/06:30pm SE 9 12 - - - - - - - 15.7 - 0.0
14/06:00pm CALM 0 3 - - - - - - - 17.1 - 0.0
14/05:30pm SSW 4 6 - - - - - - - 17.8 - 0.0
14/05:00pm SW 4 8 - - - - - - - 17.9 - 0.0
14/04:30pm SW 5 8 - - - - - - - 18.7 - 0.0
14/04:00pm SW 5 8 - - - - - - - 19.7 - 0.0
14/03:30pm SW 5 8 - - - - - - - 20.1 - 0.0
14/03:00pm WSW 5 8 - - - - - - - 20.2 - 0.0
14/02:30pm WSW 4 8 - - - - - - - 20.0 - 0.0
14/02:00pm WSW 4 7 - - - - - - - 20.0 - 0.0
14/01:30pm W 5 7 - - - - - - - 19.8 - 0.0
14/01:00pm W 5 8 - - - - - - - 19.3 - 0.0
14/12:30pm W 5 9 - - - - - - - 19.3 - 0.0
14/12:00pm WNW 5 9 - - - - - - - 19.5 - 0.0
14/11:30am W 5 8 - - - - - - - 19.1 - 0.0
14/11:00am WNW 5 7 - - - - - - - 19.5 - 0.0
14/10:30am WNW 2 4 - - - - - - - 18.9 - 0.0
14/10:00am WNW 1 3 - - - - - - - 18.0 - 0.0
14/09:30am CALM 0 2 - - - - - - - 17.3 - 0.0
14/09:00am CALM 0 0 - - - - - - - 16.6 - 0.0
14/08:30am CALM 0 0 - - - - - - - 15.8 - 0.0
14/08:00am CALM 0 0 - - - - - - - 13.7 - 0.0
14/07:30am E 1 2 - - - - - - - 11.2 - 0.0
14/07:00am E 2 4 - - - - - - - 10.3 - 0.0
14/06:30am E 2 4 - - - - - - - 10.0 - 0.0
14/06:00am E 3 4 - - - - - - - 10.2 - 0.0
14/05:30am ENE 2 5 - - - - - - - 10.8 - 0.0
14/05:00am ENE 4 6 - - - - - - - 11.6 - 0.0
14/04:30am ENE 6 7 - - - - - - - 11.8 - 0.0
14/04:00am ENE 6 8 - - - - - - - 12.1 - 0.0
14/03:30am ENE 7 10 - - - - - - - 12.2 - 0.0
14/03:00am ENE 7 9 - - - - - - - 12.3 - 0.0
14/02:30am ENE 7 9 - - - - - - - 12.3 - 0.0
14/02:00am ENE 7 11 - - - - - - - 12.3 - 0.0
14/01:30am ENE 8 13 - - - - - - - 12.4 - 0.0
14/01:00am ENE 7 11 - - - - - - - 12.5 - 0.0
14/12:30am ENE 6 8 - - - - - - - 12.3 - 0.0
14/12:00am E 5 7 - - - - - - - 11.8 - 0.0
 
Date/Time
CST
Wind Sea
Height
m
Swell Vis
km
Cloud Weather Temp
°C
Press
MSL
hPa
Rain since
9am
mm
Dir  Spd
kts
Gust
kts
Height
m
Period
s
Dir
13/11:30pm E 6 10 - - - - - - - 11.9 - 0.0
13/11:00pm E 5 9 - - - - - - - 11.7 - 0.0
13/10:30pm E 6 10 - - - - - - - 11.8 - 0.0
13/10:00pm ESE 5 9 - - - - - - - 12.0 - 0.0
13/09:30pm ESE 3 5 - - - - - - - 11.8 - 0.0
13/09:00pm ESE 1 3 - - - - - - - 12.1 - 0.0
13/08:30pm ESE 2 5 - - - - - - - 12.6 - 0.0
13/08:00pm ESE 5 8 - - - - - - - 13.1 - 0.0
13/07:30pm ESE 5 9 - - - - - - - 13.5 - 0.0
13/07:00pm SE 4 7 - - - - - - - 13.8 - 0.0
13/06:30pm SE 6 9 - - - - - - - 14.6 - 0.0
13/06:00pm SE 7 10 - - - - - - - 15.6 - 0.0
13/05:30pm SE 9 11 - - - - - - - 16.7 - 0.0
13/05:00pm S 7 11 - - - - - - - 17.6 - 0.0
13/04:30pm SW 6 10 - - - - - - - 18.3 - 0.0
13/04:00pm SW 7 13 - - - - - - - 17.9 - 0.0
13/03:30pm SW 7 13 - - - - - - - 17.9 - 0.0
13/03:00pm SW 7 12 - - - - - - - 18.0 - 0.0
13/02:30pm SW 7 9 - - - - - - - 18.4 - 0.0
13/02:00pm SW 6 11 - - - - - - - 17.6 - 0.0
13/01:30pm WSW 6 10 - - - - - - - 18.0 - 0.0
13/01:00pm WSW 5 9 - - - - - - - 18.6 - 0.0
13/12:30pm W 6 11 - - - - - - - 18.2 - 0.0
13/12:00pm SW 3 7 - - - - - - - 17.5 - 0.0
13/11:30am WSW 3 6 - - - - - - - 17.4 - 0.0
13/11:00am SE 1 4 - - - - - - - 17.8 - 0.0
13/10:30am NE 2 5 - - - - - - - 17.0 - 0.0
13/10:00am WSW 2 4 - - - - - - - 16.4 - 0.0
13/09:30am E 3 7 - - - - - - - 16.9 - 0.0
13/09:00am E 4 8 - - - - - - - 17.1 - 0.0
13/08:30am E 5 7 - - - - - - - 15.8 - 0.0
13/08:00am E 4 7 - - - - - - - 14.6 - 0.0
13/07:30am ENE 3 5 - - - - - - - 13.5 - 0.0
13/07:00am E 3 4 - - - - - - - 12.8 - 0.0
13/06:30am ESE 4 7 - - - - - - - 12.1 - 0.0
13/06:00am E 3 5 - - - - - - - 12.0 - 0.0
13/05:30am E 3 5 - - - - - - - 11.9 - 0.0
13/05:00am E 3 4 - - - - - - - 12.3 - 0.0
13/04:30am ENE 1 3 - - - - - - - 11.8 - 0.0
13/04:00am ENE 2 3 - - - - - - - 11.5 - 0.0
13/03:30am ENE 3 4 - - - - - - - 10.9 - 0.0
13/03:00am E 2 3 - - - - - - - 9.8 - 0.0
13/02:30am E 2 3 - - - - - - - 10.1 - 0.0
13/02:00am ESE 3 4 - - - - - - - 10.6 - 0.0
13/01:30am E 3 4 - - - - - - - 11.2 - 0.0
13/01:00am E 3 4 - - - - - - - 10.9 - 0.0
13/12:30am E 1 2 - - - - - - - 10.5 - 0.0
13/12:00am E 3 4 - - - - - - - 9.9 - 0.0
 
Date/Time
CST
Wind Sea
Height
m
Swell Vis
km
Cloud Weather Temp
°C
Press
MSL
hPa
Rain since
9am
mm
Dir  Spd
kts
Gust
kts
Height
m
Period
s
Dir
12/11:30pm E 4 5 - - - - - - - 10.0 - 0.0
12/11:00pm E 4 6 - - - - - - - 10.1 - 0.0
12/10:30pm E 3 4 - - - - - - - 10.2 - 0.0
12/10:00pm ESE 3 5 - - - - - - - 10.6 - 0.0
12/09:30pm ESE 3 5 - - - - - - - 10.8 - 0.0
12/09:00pm ESE 3 4 - - - - - - - 11.3 - 0.0
12/08:30pm ESE 3 5 - - - - - - - 11.7 - 0.0
12/08:00pm ESE 4 5 - - - - - - - 12.6 - 0.0
12/07:30pm SE 5 7 - - - - - - - 13.2 - 0.0
12/07:00pm SSE 5 9 - - - - - - - 13.7 - 0.0
12/06:30pm SSE 6 9 - - - - - - - 14.7 - 0.0
12/06:00pm SSW 6 11 - - - - - - - 15.8 - 0.0
12/05:30pm SW 6 11 - - - - - - - 16.6 - 0.0
12/05:00pm SW 6 11 - - - - - - - 17.1 - 0.0
12/04:30pm SW 6 12 - - - - - - - 17.3 - 0.0
12/04:00pm SW 6 10 - - - - - - - 17.5 - 0.0
12/03:30pm SW 7 10 - - - - - - - 17.8 - 0.0
12/03:00pm SW 6 11 - - - - - - - 18.2 - 0.0
12/02:30pm WSW 8 13 - - - - - - - 17.9 - 0.0
12/02:00pm WSW 7 11 - - - - - - - 17.9 - 0.0
12/01:30pm WSW 8 12 - - - - - - - 17.8 - 0.0
12/01:00pm WSW 7 11 - - - - - - - 17.7 - 0.0
12/12:30pm SW 5 8 - - - - - - - 17.7 - 0.0
12/12:00pm WSW 4 8 - - - - - - - 17.4 - 0.0
12/11:30am S 3 8 - - - - - - - 17.2 - 0.0
12/11:00am SSW 5 11 - - - - - - - 16.6 - 0.0
12/10:30am S 5 8 - - - - - - - 16.9 - 0.0
12/10:00am SSE 5 9 - - - - - - - 16.3 - 0.0
12/09:30am ESE 3 4 - - - - - - - 15.8 - 0.0
12/09:00am SE 4 6 - - - - - - - 15.4 - 0.0
12/08:30am ESE 4 6 - - - - - - - 14.9 - 0.0
12/08:00am E 4 6 - - - - - - - 14.4 - 0.0
12/07:30am ESE 4 5 - - - - - - - 13.8 - 0.0
12/07:00am ESE 3 4 - - - - - - - 13.4 - 0.0
12/06:30am ESE 4 7 - - - - - - - 13.5 - 0.0
12/06:00am ESE 1 3 - - - - - - - 13.1 - 0.0
12/05:30am ESE 1 2 - - - - - - - 13.1 - 0.0
12/05:00am ESE 2 4 - - - - - - - 13.0 - 0.0
12/04:30am E 3 5 - - - - - - - 12.9 - 0.0
12/04:00am E 3 5 - - - - - - - 12.6 - 0.0
12/03:30am E 1 3 - - - - - - - 12.5 - 0.0
12/03:00am E 2 3 - - - - - - - 12.1 - 0.0
12/02:30am E 3 5 - - - - - - - 11.7 - 0.0
12/02:00am E 2 4 - - - - - - - 11.3 - 0.0
12/01:30am ESE 3 4 - - - - - - - 11.5 - 0.0
12/01:00am CALM 0 0 - - - - - - - 11.3 - 0.0
12/12:30am ESE 2 3 - - - - - - - 10.8 - 0.0
12/12:00am ESE 3 3 - - - - - - - 11.2 - 0.0

Other formats

Comma delimited format used in spreadsheet applications
http://www.bom.gov.au/fwo/IDS60701/IDS60701.94808.axf

JavaScript Object Notation format (JSON) in row-major order
http://www.bom.gov.au/fwo/IDS60701/IDS60701.94808.json

Data quality

Most of these data are generated automatically and are frequently updated. Quality checks on data are not normally performed. It is possible for incorrect values to appear. Refer to information at About Latest Weather Observations and please check the disclaimer before using these data.